createdAt,value
2023-02-23T00:02:06.354Z,9.30
2023-02-23T00:04:34.575Z,9.30
2023-02-23T00:07:01.511Z,9.30
2023-02-23T00:09:35.921Z,9.40
2023-02-23T00:12:08.206Z,9.40
2023-02-23T00:14:37.829Z,9.30
2023-02-23T00:17:05.584Z,9.30
2023-02-23T00:19:33.629Z,9.30
2023-02-23T00:22:01.271Z,9.30
2023-02-23T00:24:28.188Z,9.30
2023-02-23T00:26:56.138Z,9.30
2023-02-23T00:29:24.896Z,9.30
2023-02-23T00:31:52.802Z,9.30
2023-02-23T00:34:21.634Z,9.30
2023-02-23T00:36:55.229Z,9.30
2023-02-23T00:39:26.594Z,9.30
2023-02-23T00:41:54.858Z,9.30
2023-02-23T00:44:23.672Z,9.30
2023-02-23T00:46:52.047Z,9.30
2023-02-23T00:49:20.809Z,9.30
2023-02-23T00:51:48.395Z,9.30
2023-02-23T00:54:16.961Z,9.20
2023-02-23T00:56:44.212Z,9.20
2023-02-23T00:59:11.746Z,9.20
2023-02-23T01:01:41.816Z,9.20
2023-02-23T01:04:09.312Z,9.20
2023-02-23T01:06:37.862Z,9.20
2023-02-23T01:09:14.598Z,9.20
2023-02-23T01:11:41.875Z,9.10
2023-02-23T01:14:10.628Z,9.10
2023-02-23T01:16:39.049Z,9.20
2023-02-23T01:19:06.731Z,9.10
2023-02-23T01:21:38.867Z,9.10
2023-02-23T01:24:06.810Z,9.10
2023-02-23T01:26:36.027Z,9.10
2023-02-23T01:29:08.842Z,9.10
2023-02-23T01:31:37.924Z,9.10
2023-02-23T01:34:06.204Z,9.10
2023-02-23T01:36:39.041Z,9.10
2023-02-23T01:39:09.229Z,9.10
2023-02-23T01:41:37.189Z,9.10
2023-02-23T01:44:27.001Z,9.10
2023-02-23T01:46:53.902Z,9.10
2023-02-23T01:49:25.744Z,9.10
2023-02-23T01:52:04.963Z,9.10
2023-02-23T01:54:39.074Z,9.10
2023-02-23T01:57:07.730Z,9.00
2023-02-23T01:59:39.950Z,9.00
2023-02-23T02:02:07.783Z,9.00
2023-02-23T02:04:45.935Z,9.00
2023-02-23T02:07:25.323Z,9.00
2023-02-23T02:10:31.922Z,8.90
2023-02-23T02:12:58.866Z,8.90
2023-02-23T02:15:32.005Z,8.90
2023-02-23T02:18:30.832Z,8.90
2023-02-23T02:21:18.394Z,8.90
2023-02-23T02:23:54.384Z,8.90
2023-02-23T02:26:29.606Z,8.90
2023-02-23T02:42:21.663Z,8.90
2023-02-23T02:45:19.103Z,8.90
2023-02-23T02:47:54.839Z,8.90
2023-02-23T02:50:46.570Z,8.90
2023-02-23T02:53:23.791Z,8.90
2023-02-23T02:55:52.967Z,8.90
2023-02-23T02:58:19.798Z,8.90
2023-02-23T03:01:08.591Z,8.90
2023-02-23T03:04:01.020Z,8.90
2023-02-23T03:07:16.692Z,8.90
2023-02-23T03:10:48.955Z,8.90
2023-02-23T03:14:15.749Z,8.90
2023-02-23T03:17:19.011Z,8.90
2023-02-23T03:20:49.135Z,8.90
2023-02-23T03:23:52.441Z,8.90
2023-02-23T03:27:00.977Z,8.90
2023-02-23T03:30:04.188Z,8.90
2023-02-23T03:33:13.115Z,8.90
2023-02-23T03:36:16.471Z,8.80
2023-02-23T03:39:13.401Z,8.90
2023-02-23T03:42:00.784Z,8.80
2023-02-23T03:44:57.706Z,8.80
2023-02-23T03:47:47.138Z,8.90
2023-02-23T03:50:52.874Z,8.90
2023-02-23T03:53:45.812Z,8.90
2023-02-23T03:56:35.066Z,8.90
2023-02-23T03:59:22.901Z,8.80
2023-02-23T04:02:09.951Z,8.80
2023-02-23T04:04:56.509Z,8.80
2023-02-23T04:07:42.944Z,8.80
2023-02-23T04:10:29.316Z,8.80
2023-02-23T04:13:24.166Z,8.80
2023-02-23T04:16:01.661Z,8.80
2023-02-23T04:18:30.877Z,8.80
2023-02-23T04:20:58.401Z,8.80
2023-02-23T04:23:25.896Z,8.80
2023-02-23T04:25:53.369Z,8.80
2023-02-23T04:28:21.693Z,8.80
2023-02-23T04:30:48.774Z,8.80
2023-02-23T04:33:16.022Z,8.80
2023-02-23T04:35:42.950Z,8.80
2023-02-23T04:38:10.151Z,8.80
2023-02-23T04:40:37.133Z,8.80
2023-02-23T04:43:03.968Z,8.80
2023-02-23T04:45:30.886Z,8.80
2023-02-23T04:47:57.750Z,8.70
2023-02-23T04:50:24.623Z,8.70
2023-02-23T04:52:53.381Z,8.70
2023-02-23T04:55:23.068Z,8.80
2023-02-23T04:57:50.390Z,8.80
2023-02-23T05:00:18.747Z,8.80
2023-02-23T05:02:46.062Z,8.70
2023-02-23T05:05:13.188Z,8.70
2023-02-23T05:07:40.046Z,8.80
2023-02-23T05:10:07.491Z,8.70
2023-02-23T05:12:34.341Z,8.70
2023-02-23T05:15:01.221Z,8.70
2023-02-23T05:17:28.595Z,8.70
2023-02-23T05:19:56.321Z,8.70
2023-02-23T05:22:23.485Z,8.70
2023-02-23T05:24:50.457Z,8.70
2023-02-23T05:27:17.948Z,8.70
2023-02-23T05:29:44.990Z,8.70
2023-02-23T05:32:12.027Z,8.70
2023-02-23T05:34:39.308Z,8.70
2023-02-23T05:37:06.501Z,8.70
2023-02-23T05:39:33.540Z,8.70
2023-02-23T05:42:00.388Z,8.70
2023-02-23T05:44:27.505Z,8.70
2023-02-23T05:46:54.435Z,8.70
2023-02-23T05:49:21.545Z,8.70
2023-02-23T05:51:48.696Z,8.70
2023-02-23T05:54:15.634Z,8.70
2023-02-23T05:56:43.317Z,8.60
2023-02-23T05:59:10.441Z,8.60
2023-02-23T06:01:37.316Z,8.70
2023-02-23T06:04:06.101Z,8.60
2023-02-23T06:06:33.372Z,8.60
2023-02-23T06:09:00.312Z,8.60
2023-02-23T06:11:27.293Z,8.60
2023-02-23T06:13:54.170Z,8.60
2023-02-23T06:16:21.169Z,8.60
2023-02-23T06:18:48.262Z,8.60
2023-02-23T06:21:15.195Z,8.60
2023-02-23T06:23:42.070Z,8.60
2023-02-23T06:26:09.586Z,8.60
2023-02-23T06:28:36.588Z,8.60
2023-02-23T06:31:03.973Z,8.60
2023-02-23T06:33:30.900Z,8.60
2023-02-23T06:35:57.798Z,8.60
2023-02-23T06:38:24.797Z,8.60
2023-02-23T06:40:51.623Z,8.60
2023-02-23T06:43:18.720Z,8.60
2023-02-23T06:45:47.147Z,8.60
2023-02-23T06:48:14.106Z,8.60
2023-02-23T06:50:41.060Z,8.60
2023-02-23T06:53:08.536Z,8.60
2023-02-23T06:55:35.406Z,8.60
2023-02-23T06:58:02.351Z,8.60
2023-02-23T07:00:30.563Z,8.60
2023-02-23T07:02:57.968Z,8.60
2023-02-23T07:05:24.852Z,8.60
2023-02-23T07:07:52.166Z,8.60
2023-02-23T07:10:19.161Z,8.60
2023-02-23T07:12:46.085Z,8.60
2023-02-23T07:15:12.976Z,8.60
2023-02-23T07:17:39.857Z,8.50
2023-02-23T07:20:07.188Z,8.60
2023-02-23T07:22:34.295Z,8.50
2023-02-23T07:25:01.294Z,8.50
2023-02-23T07:27:28.327Z,8.50
2023-02-23T07:29:55.213Z,8.50
2023-02-23T07:32:22.339Z,8.50
2023-02-23T07:34:49.312Z,8.60
2023-02-23T07:37:17.224Z,8.60
2023-02-23T07:39:44.350Z,8.50
2023-02-23T07:42:11.244Z,8.50
2023-02-23T07:44:38.804Z,8.60
2023-02-23T07:47:06.389Z,8.60
2023-02-23T07:49:34.338Z,8.60
2023-02-23T07:52:01.206Z,8.60
2023-02-23T07:54:28.196Z,8.60
2023-02-23T07:56:55.111Z,8.60
2023-02-23T07:59:21.980Z,8.60
2023-02-23T08:01:48.955Z,8.60
2023-02-23T08:04:15.841Z,8.60
2023-02-23T08:06:42.790Z,8.60
2023-02-23T08:09:11.249Z,8.60
2023-02-23T08:11:38.643Z,8.60
2023-02-23T08:14:05.510Z,8.60
2023-02-23T08:16:33.572Z,8.70
2023-02-23T08:19:01.252Z,8.70
2023-02-23T08:21:29.581Z,8.70
2023-02-23T08:23:57.957Z,8.70
2023-02-23T08:26:25.748Z,8.70
2023-02-23T08:28:53.867Z,8.70
2023-02-23T08:31:24.424Z,8.70
2023-02-23T08:33:52.933Z,8.70
2023-02-23T08:36:20.969Z,8.60
2023-02-23T08:38:48.254Z,8.60
2023-02-23T08:41:15.529Z,8.60
2023-02-23T08:43:44.111Z,8.60
2023-02-23T08:46:11.649Z,8.60
2023-02-23T08:48:40.567Z,8.60
2023-02-23T08:51:08.952Z,8.60
2023-02-23T08:53:36.502Z,8.60
2023-02-23T08:56:06.251Z,8.70
2023-02-23T08:58:34.160Z,8.70
2023-02-23T09:01:01.727Z,8.80
2023-02-23T09:03:30.802Z,8.80
2023-02-23T09:06:08.221Z,8.80
2023-02-23T09:08:35.329Z,8.80
2023-02-23T09:11:02.176Z,8.70
2023-02-23T09:13:29.065Z,8.70
2023-02-23T09:15:55.995Z,8.70
2023-02-23T09:18:24.176Z,8.70
2023-02-23T09:20:51.594Z,8.60
2023-02-23T09:23:18.559Z,8.60
2023-02-23T09:25:45.971Z,8.60
2023-02-23T09:28:17.952Z,8.60
2023-02-23T09:30:46.590Z,8.60
2023-02-23T09:33:13.990Z,8.70
2023-02-23T09:35:41.514Z,8.70
2023-02-23T09:38:09.356Z,8.70
2023-02-23T09:40:54.247Z,8.70
2023-02-23T09:44:02.724Z,8.70
2023-02-23T09:46:59.032Z,8.70
2023-02-23T09:49:29.911Z,8.70
2023-02-23T09:52:00.422Z,8.70
2023-02-23T09:54:32.797Z,8.70
2023-02-23T09:57:04.917Z,8.80
2023-02-23T09:59:31.937Z,8.90
2023-02-23T10:02:26.075Z,8.90
2023-02-23T10:05:03.933Z,9.00
2023-02-23T10:07:56.051Z,9.10
2023-02-23T10:10:42.435Z,9.20
2023-02-23T10:13:29.513Z,9.20
2023-02-23T10:16:18.598Z,9.20
2023-02-23T10:19:00.502Z,9.30
2023-02-23T10:21:53.978Z,9.40
2023-02-23T10:24:43.833Z,9.40
2023-02-23T10:27:16.541Z,9.40
2023-02-23T10:29:52.846Z,9.40
2023-02-23T10:32:42.046Z,9.30
2023-02-23T10:35:14.658Z,9.30
2023-02-23T10:37:41.895Z,9.30
2023-02-23T10:40:18.403Z,9.20
2023-02-23T10:42:45.357Z,9.20
2023-02-23T10:45:23.527Z,9.20
2023-02-23T10:48:03.997Z,9.10
2023-02-23T10:50:31.892Z,9.10
2023-02-23T10:53:24.237Z,9.10
2023-02-23T10:56:13.887Z,9.10
2023-02-23T10:58:56.212Z,9.10
2023-02-23T11:02:01.025Z,9.00
2023-02-23T11:04:35.337Z,9.00
2023-02-23T11:07:29.761Z,9.00
2023-02-23T11:09:58.570Z,9.10
2023-02-23T11:12:43.864Z,9.20
2023-02-23T11:15:48.545Z,9.30
2023-02-23T11:18:24.904Z,9.40
2023-02-23T11:20:52.548Z,9.50
2023-02-23T11:23:24.463Z,9.50
2023-02-23T11:25:55.628Z,9.50
2023-02-23T11:28:30.351Z,9.60
2023-02-23T11:31:09.499Z,9.70
2023-02-23T11:33:39.760Z,9.70
2023-02-23T11:36:28.093Z,9.70
2023-02-23T11:39:06.915Z,9.70
2023-02-23T11:41:37.187Z,9.80
2023-02-23T11:44:06.405Z,9.70
2023-02-23T11:46:38.133Z,9.60
2023-02-23T11:49:14.844Z,9.50
2023-02-23T11:51:49.162Z,9.50
2023-02-23T11:54:36.181Z,9.40
2023-02-23T11:57:10.272Z,9.40
2023-02-23T11:59:40.550Z,9.30
2023-02-23T12:02:25.795Z,9.20
2023-02-23T12:05:17.030Z,9.10
2023-02-23T12:07:51.565Z,9.00
2023-02-23T12:10:32.938Z,8.90
2023-02-23T12:13:38.620Z,8.90
2023-02-23T12:16:25.018Z,8.90
2023-02-23T12:19:25.859Z,8.80
2023-02-23T12:22:20.271Z,8.70
2023-02-23T12:25:14.618Z,8.70
2023-02-23T12:27:55.554Z,8.70
2023-02-23T12:30:52.308Z,8.70
2023-02-23T12:33:41.911Z,8.60
2023-02-23T12:36:42.814Z,8.60
2023-02-23T12:39:30.495Z,8.60
2023-02-23T12:42:20.525Z,8.70
2023-02-23T12:44:53.771Z,8.70
2023-02-23T12:47:57.986Z,8.70
2023-02-23T12:50:32.162Z,8.60
2023-02-23T12:53:07.046Z,8.60
2023-02-23T12:56:18.984Z,8.50
2023-02-23T12:59:30.933Z,8.50
2023-02-23T13:02:02.234Z,8.50
2023-02-23T13:05:22.684Z,8.50
2023-02-23T13:08:13.711Z,8.40
2023-02-23T13:10:55.635Z,8.30
2023-02-23T13:13:44.530Z,8.40
2023-02-23T13:16:29.623Z,8.40
2023-02-23T13:19:21.156Z,8.40
2023-02-23T13:22:33.799Z,8.40
2023-02-23T13:25:07.912Z,8.40
2023-02-23T13:27:43.098Z,8.40
2023-02-23T13:30:11.831Z,8.30
2023-02-23T13:32:39.645Z,8.30
2023-02-23T13:35:13.386Z,8.30
2023-02-23T13:37:59.703Z,8.30
2023-02-23T13:40:36.178Z,8.20
2023-02-23T13:43:30.188Z,8.20
2023-02-23T13:46:27.974Z,8.20
2023-02-23T13:49:18.395Z,8.20
2023-02-23T13:51:56.584Z,8.20
2023-02-23T13:54:30.710Z,8.20
2023-02-23T13:57:01.442Z,8.20
2023-02-23T13:59:38.514Z,8.20
2023-02-23T14:02:34.945Z,8.20
2023-02-23T14:05:04.941Z,8.20
2023-02-23T14:07:33.324Z,8.20
2023-02-23T14:10:07.290Z,8.10
2023-02-23T14:12:42.636Z,8.10
2023-02-23T14:15:48.434Z,8.00
2023-02-23T14:18:35.846Z,8.00
2023-02-23T14:21:26.612Z,7.90
2023-02-23T14:24:17.707Z,8.00
2023-02-23T14:27:38.619Z,7.90
2023-02-23T14:30:15.982Z,7.90
2023-02-23T14:32:48.554Z,7.90
2023-02-23T14:35:44.067Z,8.00
2023-02-23T14:38:17.480Z,7.90
2023-02-23T14:40:49.089Z,7.90
2023-02-23T14:43:42.494Z,7.90
2023-02-23T14:46:17.146Z,7.90
2023-02-23T14:48:58.631Z,7.80
2023-02-23T14:51:34.195Z,7.80
2023-02-23T14:54:01.455Z,7.80
2023-02-23T14:56:43.291Z,7.80
2023-02-23T14:59:21.192Z,7.70
2023-02-23T15:01:50.610Z,7.70
2023-02-23T15:04:20.870Z,7.70
2023-02-23T15:06:48.341Z,7.70
2023-02-23T15:09:29.552Z,7.70
2023-02-23T15:11:57.620Z,7.70
2023-02-23T15:14:28.160Z,7.70
2023-02-23T15:16:56.705Z,7.70
2023-02-23T15:19:26.225Z,7.60
2023-02-23T15:21:55.222Z,7.60
2023-02-23T15:24:27.543Z,7.60
2023-02-23T15:26:57.855Z,7.60
2023-02-23T15:29:30.200Z,7.50
2023-02-23T15:32:13.013Z,7.50
2023-02-23T15:34:40.134Z,7.50
2023-02-23T15:37:17.274Z,7.50
2023-02-23T15:39:58.641Z,7.50
2023-02-23T15:42:35.806Z,7.50
2023-02-23T15:45:05.642Z,7.50
2023-02-23T15:47:36.724Z,7.50
2023-02-23T15:50:36.514Z,7.50
2023-02-23T15:53:13.774Z,7.50
2023-02-23T15:55:43.867Z,7.50
2023-02-23T15:58:25.058Z,7.60
2023-02-23T16:01:08.598Z,7.60
2023-02-23T16:03:38.080Z,7.50
2023-02-23T16:06:08.397Z,7.50
2023-02-23T16:08:36.966Z,7.50
2023-02-23T16:11:19.202Z,7.50
2023-02-23T16:13:46.890Z,7.50
2023-02-23T16:16:20.468Z,7.50
2023-02-23T16:18:53.353Z,7.50
2023-02-23T16:21:25.426Z,7.50
2023-02-23T16:23:54.512Z,7.50
2023-02-23T16:26:57.334Z,7.50
2023-02-23T16:29:42.454Z,7.50
2023-02-23T16:32:33.667Z,7.50
2023-02-23T16:35:03.969Z,7.40
2023-02-23T16:37:30.913Z,7.40
2023-02-23T16:39:57.803Z,7.40
2023-02-23T16:42:32.609Z,7.40
2023-02-23T16:45:00.299Z,7.40
2023-02-23T16:47:42.351Z,7.40
2023-02-23T16:50:22.350Z,7.40
2023-02-23T16:52:54.461Z,7.40
2023-02-23T16:55:26.249Z,7.40
2023-02-23T16:57:57.055Z,7.40
2023-02-23T17:00:28.736Z,7.30
2023-02-23T17:02:57.490Z,7.40
2023-02-23T17:05:25.168Z,7.40
2023-02-23T17:07:52.783Z,7.40
2023-02-23T17:10:26.126Z,7.30
2023-02-23T17:12:59.408Z,7.30
2023-02-23T17:15:30.022Z,7.30
2023-02-23T17:17:57.505Z,7.30
2023-02-23T17:20:26.131Z,7.30
2023-02-23T17:22:58.253Z,7.30
2023-02-23T17:25:26.685Z,7.20
2023-02-23T17:27:57.868Z,7.20
2023-02-23T17:30:25.404Z,7.20
2023-02-23T17:32:55.297Z,7.20
2023-02-23T17:35:23.112Z,7.20
2023-02-23T17:37:50.416Z,7.20
2023-02-23T17:40:29.128Z,7.20
2023-02-23T17:42:58.649Z,7.20
2023-02-23T17:45:26.973Z,7.20
2023-02-23T17:47:54.437Z,7.20
2023-02-23T17:50:22.712Z,7.20
2023-02-23T17:52:51.009Z,7.20
2023-02-23T17:55:19.631Z,7.20
2023-02-23T17:57:47.258Z,7.20
2023-02-23T18:00:16.745Z,7.20
2023-02-23T18:02:45.200Z,7.20
2023-02-23T18:05:13.589Z,7.20
2023-02-23T18:07:41.178Z,7.20
2023-02-23T18:10:09.478Z,7.20
2023-02-23T18:12:36.540Z,7.20
2023-02-23T18:15:03.822Z,7.20
2023-02-23T18:17:32.649Z,7.20
2023-02-23T18:20:00.551Z,7.20
2023-02-23T18:22:28.140Z,7.20
2023-02-23T18:24:57.125Z,7.20
2023-02-23T18:27:24.620Z,7.20
2023-02-23T18:29:51.503Z,7.20
2023-02-23T18:32:18.652Z,7.20
2023-02-23T18:34:45.692Z,7.10
2023-02-23T18:37:12.679Z,7.20
2023-02-23T18:39:40.639Z,7.20
2023-02-23T18:42:07.607Z,7.20
2023-02-23T18:44:35.338Z,7.20
2023-02-23T18:47:03.301Z,7.10
2023-02-23T18:49:30.354Z,7.10
2023-02-23T18:51:58.208Z,7.10
2023-02-23T18:57:06.962Z,7.10
2023-02-23T18:59:34.017Z,7.10
2023-02-23T19:02:00.881Z,7.10
2023-02-23T19:04:27.994Z,7.10
2023-02-23T19:06:54.938Z,7.10
2023-02-23T19:09:21.764Z,7.10
2023-02-23T19:11:50.752Z,7.10
2023-02-23T19:14:19.907Z,7.10
2023-02-23T19:16:48.287Z,7.10
2023-02-23T19:19:16.141Z,7.10
2023-02-23T19:21:43.111Z,7.10
2023-02-23T19:24:10.280Z,7.10
2023-02-23T19:26:38.282Z,7.10
2023-02-23T19:29:06.221Z,7.10
2023-02-23T19:31:34.293Z,7.10
2023-02-23T19:34:03.438Z,7.10
2023-02-23T19:36:31.773Z,7.10
2023-02-23T19:39:11.075Z,7.10
2023-02-23T19:41:39.839Z,7.00
2023-02-23T19:44:06.858Z,7.00
2023-02-23T19:46:35.025Z,7.00
2023-02-23T19:49:02.009Z,7.00
2023-02-23T19:51:28.947Z,7.00
2023-02-23T19:53:57.277Z,6.90
2023-02-23T19:56:25.050Z,6.90
2023-02-23T19:58:52.346Z,6.90
2023-02-23T20:01:21.409Z,7.00
2023-02-23T20:03:55.387Z,6.90
2023-02-23T20:06:25.416Z,6.90
2023-02-23T20:08:52.726Z,7.00
2023-02-23T20:11:20.340Z,7.00
2023-02-23T20:13:47.535Z,7.00
2023-02-23T20:16:15.084Z,7.00
2023-02-23T20:18:43.925Z,7.00
2023-02-23T20:21:24.560Z,7.00
2023-02-23T20:23:51.742Z,7.10
2023-02-23T20:26:26.476Z,7.10
2023-02-23T20:28:54.764Z,7.10
2023-02-23T20:31:26.637Z,7.10
2023-02-23T20:33:56.131Z,7.10
2023-02-23T20:36:24.400Z,7.10
2023-02-23T20:38:52.152Z,7.10
2023-02-23T20:41:20.222Z,7.10
2023-02-23T20:43:47.469Z,7.10
2023-02-23T20:46:16.938Z,7.00
2023-02-23T20:48:43.994Z,6.80
2023-02-23T20:51:15.199Z,6.60
2023-02-23T20:53:46.823Z,6.50
2023-02-23T20:56:17.118Z,6.40
2023-02-23T20:58:46.247Z,6.30
2023-02-23T21:01:22.913Z,6.20
2023-02-23T21:03:51.639Z,6.20
2023-02-23T21:06:20.132Z,6.20
2023-02-23T21:08:51.140Z,6.10
2023-02-23T21:11:19.932Z,6.10
2023-02-23T21:13:47.267Z,6.10
2023-02-23T21:16:16.871Z,6.00
2023-02-23T21:18:44.016Z,6.00
2023-02-23T21:21:12.000Z,6.00
2023-02-23T21:23:43.386Z,5.90
2023-02-23T21:26:13.460Z,5.90
2023-02-23T21:28:42.286Z,5.90
2023-02-23T21:31:11.015Z,5.90
2023-02-23T21:33:39.216Z,5.90
2023-02-23T21:36:10.487Z,5.80
2023-02-23T21:38:42.842Z,5.80
2023-02-23T21:41:11.340Z,5.70
2023-02-23T21:43:40.138Z,5.70
2023-02-23T21:46:13.127Z,5.60
2023-02-23T21:48:40.845Z,5.60
2023-02-23T21:51:11.527Z,5.60
2023-02-23T21:53:39.272Z,5.60
2023-02-23T21:56:11.901Z,5.60
2023-02-23T21:58:43.240Z,5.60
2023-02-23T22:01:15.775Z,5.60
2023-02-23T22:03:45.159Z,5.60
2023-02-23T22:06:20.783Z,5.60
2023-02-23T22:08:50.622Z,5.60
2023-02-23T22:11:24.862Z,5.60
2023-02-23T22:13:54.519Z,5.60
2023-02-23T22:16:22.281Z,5.60
2023-02-23T22:18:50.639Z,5.60
2023-02-23T22:21:19.072Z,5.60
2023-02-23T22:24:15.654Z,5.60
2023-02-23T22:26:53.837Z,5.60
2023-02-23T22:29:22.699Z,5.60
2023-02-23T22:31:50.059Z,5.60
2023-02-23T22:34:18.453Z,5.60
2023-02-23T22:36:45.622Z,5.60
2023-02-23T22:39:18.506Z,5.60
2023-02-23T22:41:46.853Z,5.60
2023-02-23T22:44:16.812Z,5.60
2023-02-23T22:46:46.533Z,5.60
2023-02-23T22:49:16.051Z,5.50
2023-02-23T22:51:44.354Z,5.50
2023-02-23T22:54:13.429Z,5.40
2023-02-23T22:56:42.295Z,5.40
2023-02-23T22:59:11.105Z,5.40
2023-02-23T23:01:39.833Z,5.30
2023-02-23T23:04:10.543Z,5.30
2023-02-23T23:06:40.258Z,5.30
2023-02-23T23:09:09.498Z,5.30
2023-02-23T23:11:36.438Z,5.30
2023-02-23T23:14:07.057Z,5.20
2023-02-23T23:16:35.792Z,5.20
2023-02-23T23:19:08.073Z,5.20
2023-02-23T23:21:35.910Z,5.10
2023-02-23T23:24:07.654Z,5.10
2023-02-23T23:26:39.854Z,5.10
2023-02-23T23:29:10.229Z,5.00
2023-02-23T23:31:38.524Z,5.00
2023-02-23T23:34:10.078Z,5.00
2023-02-23T23:36:43.119Z,4.90
2023-02-23T23:39:16.309Z,4.90
2023-02-23T23:41:48.002Z,4.90
2023-02-23T23:44:21.013Z,4.80
2023-02-23T23:46:50.809Z,4.80
2023-02-23T23:49:20.735Z,4.80
2023-02-23T23:51:50.700Z,4.80
2023-02-23T23:54:24.393Z,4.80
2023-02-23T23:56:51.504Z,4.70
2023-02-23T23:59:21.546Z,4.80
